createdAt,value
2022-09-26T00:01:46.058Z,30.10
2022-09-26T00:04:22.743Z,28.42
2022-09-26T00:06:52.520Z,27.67
2022-09-26T00:09:22.447Z,29.27
2022-09-26T00:11:51.169Z,29.20
2022-09-26T00:14:23.225Z,30.85
2022-09-26T00:16:53.201Z,29.40
2022-09-26T00:19:22.532Z,30.38
2022-09-26T00:21:51.425Z,31.42
2022-09-26T00:24:20.489Z,31.55
2022-09-26T00:26:49.586Z,31.55
2022-09-26T00:29:18.342Z,30.10
2022-09-26T00:31:49.206Z,32.70
2022-09-26T00:34:20.632Z,36.08
2022-09-26T00:36:50.470Z,33.88
2022-09-26T00:39:19.389Z,32.03
2022-09-26T00:41:48.279Z,31.70
2022-09-26T00:44:50.676Z,34.72
2022-09-26T00:47:41.192Z,33.55
2022-09-26T00:50:17.049Z,33.55
2022-09-26T00:52:51.119Z,32.90
2022-09-26T00:55:23.050Z,31.98
2022-09-26T00:57:55.034Z,34.83
2022-09-26T01:00:24.084Z,33.90
2022-09-26T01:05:25.693Z,38.17
2022-09-26T01:10:23.197Z,35.35
2022-09-26T01:12:52.408Z,37.58
2022-09-26T01:15:23.498Z,36.50
2022-09-26T01:17:52.822Z,36.58
2022-09-26T01:20:36.755Z,38.40
2022-09-26T01:23:49.631Z,38.83
2022-09-26T01:26:31.423Z,38.30
2022-09-26T01:29:17.517Z,37.75
2022-09-26T01:32:07.683Z,36.95
2022-09-26T01:34:42.320Z,37.70
2022-09-26T01:37:19.717Z,36.47
2022-09-26T01:39:56.450Z,39.67
2022-09-26T01:42:30.452Z,39.40
2022-09-26T01:45:02.989Z,37.55
2022-09-26T01:47:41.082Z,36.67
2022-09-26T01:50:16.480Z,37.47
2022-09-26T01:52:47.982Z,38.88
2022-09-26T01:55:19.306Z,38.58
2022-09-26T01:57:50.429Z,40.90
2022-09-26T02:00:19.839Z,40.10
2022-09-26T02:02:51.584Z,40.45
2022-09-26T02:05:28.204Z,41.00
2022-09-26T02:07:59.952Z,41.53
2022-09-26T02:10:31.531Z,44.22
2022-09-26T02:13:04.745Z,41.95
2022-09-26T02:15:35.977Z,43.80
2022-09-26T02:18:15.120Z,43.45
2022-09-26T02:20:49.960Z,43.08
2022-09-26T02:23:18.845Z,43.72
2022-09-26T02:25:48.037Z,45.85
2022-09-26T02:28:17.312Z,43.10
2022-09-26T02:30:47.431Z,44.22
2022-09-26T02:33:17.811Z,44.88
2022-09-26T02:38:23.841Z,43.28
2022-09-26T02:41:05.464Z,42.08
2022-09-26T02:43:45.723Z,45.53
2022-09-26T02:46:26.751Z,49.42
2022-09-26T02:49:08.233Z,48.65
2022-09-26T02:51:49.912Z,45.35
2022-09-26T02:54:24.338Z,47.95
2022-09-26T02:57:05.071Z,49.92
2022-09-26T02:59:41.455Z,47.67
2022-09-26T03:02:15.927Z,48.42
2022-09-26T03:04:53.433Z,49.17
2022-09-26T03:07:25.627Z,47.55
2022-09-26T03:09:54.815Z,45.28
2022-09-26T03:12:24.872Z,49.83
2022-09-26T03:14:58.428Z,48.95
2022-09-26T03:17:28.329Z,47.13
2022-09-26T03:20:03.420Z,48.60
2022-09-26T03:23:07.795Z,45.85
2022-09-26T03:28:12.453Z,55.20
2022-09-26T03:30:42.033Z,53.20
2022-09-26T03:33:30.644Z,52.33
2022-09-26T03:36:00.582Z,63.50
2022-09-26T03:38:30.691Z,54.78
2022-09-26T03:41:09.815Z,56.95
2022-09-26T03:43:57.785Z,53.13
2022-09-26T03:46:29.455Z,48.70
2022-09-26T03:48:59.149Z,46.00
2022-09-26T03:51:27.979Z,52.20
2022-09-26T03:53:59.260Z,50.67
2022-09-26T03:56:29.031Z,46.25
2022-09-26T03:58:57.710Z,44.72
2022-09-26T04:01:26.715Z,43.45
2022-09-26T04:03:55.562Z,47.30
2022-09-26T04:06:24.392Z,44.42
2022-09-26T04:08:54.301Z,50.07
2022-09-26T04:11:25.247Z,41.65
2022-09-26T04:13:54.505Z,47.58
2022-09-26T04:16:30.551Z,49.30
2022-09-26T04:19:12.205Z,45.38
2022-09-26T04:21:42.163Z,44.28
2022-09-26T04:24:14.848Z,48.42
2022-09-26T04:26:46.098Z,46.97
2022-09-26T04:29:15.577Z,50.35
2022-09-26T04:32:19.681Z,50.50
2022-09-26T04:35:08.054Z,56.60
2022-09-26T04:37:38.236Z,62.03
2022-09-26T04:40:07.826Z,52.28
2022-09-26T04:42:42.747Z,57.72
2022-09-26T04:45:12.110Z,53.42
2022-09-26T04:47:41.154Z,51.20
2022-09-26T04:50:30.344Z,53.13
2022-09-26T04:53:07.506Z,44.75
2022-09-26T04:55:44.825Z,49.72
2022-09-26T04:58:15.684Z,45.05
2022-09-26T05:00:45.651Z,48.25
2022-09-26T05:03:17.313Z,50.65
2022-09-26T05:05:47.575Z,46.58
2022-09-26T05:08:16.897Z,46.10
2022-09-26T05:10:46.650Z,47.53
2022-09-26T05:13:16.801Z,50.97
2022-09-26T05:15:46.457Z,41.65
2022-09-26T05:18:15.672Z,48.10
2022-09-26T05:20:48.446Z,47.22
2022-09-26T05:23:43.704Z,46.40
2022-09-26T05:26:20.510Z,46.92
2022-09-26T05:28:53.100Z,47.80
2022-09-26T05:31:29.205Z,42.45
2022-09-26T05:33:58.152Z,38.90
2022-09-26T05:36:27.353Z,39.35
2022-09-26T05:38:56.185Z,39.95
2022-09-26T05:41:23.995Z,37.05
2022-09-26T05:43:56.107Z,50.03
2022-09-26T05:46:25.966Z,38.90
2022-09-26T05:48:57.316Z,36.22
2022-09-26T05:51:27.244Z,36.45
2022-09-26T05:53:57.836Z,35.33
2022-09-26T05:56:28.719Z,34.83
2022-09-26T05:59:22.655Z,33.15
2022-09-26T06:02:29.594Z,35.03
2022-09-26T06:05:16.898Z,34.45
2022-09-26T06:08:06.088Z,35.67
2022-09-26T06:10:45.378Z,42.45
2022-09-26T06:13:15.468Z,41.42
2022-09-26T06:15:52.239Z,43.50
2022-09-26T06:18:21.087Z,38.78
2022-09-26T06:20:50.025Z,44.67
2022-09-26T06:23:18.785Z,46.80
2022-09-26T06:25:48.575Z,42.28
2022-09-26T06:28:18.223Z,36.90
2022-09-26T06:30:47.076Z,46.30
2022-09-26T06:33:32.568Z,43.40
2022-09-26T06:36:28.583Z,49.80
2022-09-26T06:38:57.988Z,43.70
2022-09-26T06:41:28.718Z,41.70
2022-09-26T06:43:57.934Z,45.42
2022-09-26T06:46:48.997Z,43.88
2022-09-26T06:49:24.759Z,36.15
2022-09-26T06:52:15.940Z,34.83
2022-09-26T06:54:45.441Z,35.10
2022-09-26T06:57:15.549Z,31.25
2022-09-26T06:59:44.468Z,31.85
2022-09-26T07:02:28.679Z,31.13
2022-09-26T07:05:18.620Z,31.45
2022-09-26T07:07:53.457Z,33.42
2022-09-26T07:10:29.124Z,30.88
2022-09-26T07:13:05.858Z,26.83
2022-09-26T07:18:12.091Z,27.52
2022-09-26T07:20:57.493Z,26.92
2022-09-26T07:23:47.854Z,31.45
2022-09-26T07:26:18.851Z,31.98
2022-09-26T07:28:52.210Z,33.63
2022-09-26T07:31:24.341Z,30.25
2022-09-26T07:34:18.319Z,32.17
2022-09-26T07:36:49.675Z,32.95
2022-09-26T07:39:18.530Z,32.95
2022-09-26T07:41:47.524Z,29.45
2022-09-26T07:45:08.723Z,31.38
2022-09-26T07:47:22.174Z,28.73
2022-09-26T07:50:08.510Z,26.42
2022-09-26T07:52:46.849Z,27.25
2022-09-26T07:55:23.088Z,24.88
2022-09-26T07:58:10.345Z,25.88
2022-09-26T08:01:00.184Z,25.08
2022-09-26T08:03:49.555Z,24.35
2022-09-26T08:06:27.897Z,23.80
2022-09-26T08:08:58.425Z,23.10
2022-09-26T08:11:47.543Z,25.27
2022-09-26T08:14:37.595Z,26.70
2022-09-26T08:17:23.399Z,24.38
2022-09-26T08:19:51.952Z,23.58
2022-09-26T08:22:20.793Z,22.00
2022-09-26T08:24:54.959Z,24.58
2022-09-26T08:27:38.654Z,24.58
2022-09-26T08:30:10.708Z,23.63
2022-09-26T08:32:39.744Z,21.88
2022-09-26T08:35:15.005Z,23.88
2022-09-26T08:37:56.534Z,24.27
2022-09-26T08:40:49.702Z,25.20
2022-09-26T08:43:59.479Z,21.92
2022-09-26T08:46:52.600Z,23.88
2022-09-26T08:49:44.279Z,27.55
2022-09-26T08:52:23.890Z,27.17
2022-09-26T08:54:54.740Z,22.50
2022-09-26T08:57:32.038Z,26.75
2022-09-26T09:00:00.872Z,21.30
2022-09-26T09:02:40.391Z,23.73
2022-09-26T09:05:17.577Z,22.60
2022-09-26T09:07:49.917Z,23.40
2022-09-26T09:10:20.734Z,21.83
2022-09-26T09:13:06.877Z,22.70
2022-09-26T09:15:57.027Z,24.13
2022-09-26T09:18:56.599Z,21.30
2022-09-26T09:21:52.321Z,18.13
2022-09-26T09:24:47.629Z,22.17
2022-09-26T09:30:21.332Z,20.75
2022-09-26T09:32:59.295Z,19.73
2022-09-26T09:35:49.026Z,20.00
2022-09-26T09:38:40.749Z,18.88
2022-09-26T09:41:36.119Z,22.95
2022-09-26T09:44:06.988Z,20.42
2022-09-26T09:46:41.141Z,21.83
2022-09-26T09:49:20.862Z,21.17
2022-09-26T09:52:01.934Z,16.83
2022-09-26T09:54:40.145Z,21.55
2022-09-26T09:57:34.736Z,20.23
2022-09-26T10:00:10.809Z,17.80
2022-09-26T10:03:17.986Z,17.88
2022-09-26T10:05:48.089Z,20.30
2022-09-26T10:08:31.458Z,19.57
2022-09-26T10:11:23.382Z,18.70
2022-09-26T10:14:05.268Z,17.58
2022-09-26T10:17:20.602Z,16.08
2022-09-26T10:19:53.822Z,16.58
2022-09-26T10:22:32.585Z,16.35
2022-09-26T10:27:37.067Z,18.27
2022-09-26T10:30:21.927Z,17.42
2022-09-26T10:32:56.726Z,15.50
2022-09-26T10:35:47.561Z,13.27
2022-09-26T10:38:23.447Z,12.25
2022-09-26T10:41:25.415Z,13.25
2022-09-26T10:43:57.675Z,12.77
2022-09-26T10:46:46.847Z,12.30
2022-09-26T10:49:41.079Z,13.50
2022-09-26T10:52:31.955Z,14.18
2022-09-26T10:55:04.831Z,10.50
2022-09-26T10:57:36.874Z,10.68
2022-09-26T11:00:07.633Z,9.70
2022-09-26T11:02:37.827Z,9.27
2022-09-26T11:05:25.312Z,7.95
2022-09-26T11:08:00.559Z,7.78
2022-09-26T11:10:42.331Z,7.63
2022-09-26T11:13:32.800Z,7.60
2022-09-26T11:16:13.758Z,8.15
2022-09-26T11:18:52.953Z,9.00
2022-09-26T11:21:29.253Z,8.35
2022-09-26T11:24:12.876Z,9.00
2022-09-26T11:26:49.746Z,7.93
2022-09-26T11:29:23.333Z,7.95
2022-09-26T11:32:07.301Z,8.05
2022-09-26T11:35:02.526Z,7.68
2022-09-26T11:37:40.157Z,8.15
2022-09-26T11:40:24.099Z,8.68
2022-09-26T11:43:05.117Z,8.73
2022-09-26T11:45:47.473Z,8.27
2022-09-26T11:48:51.777Z,7.53
2022-09-26T11:52:04.903Z,8.65
2022-09-26T11:54:45.784Z,8.35
2022-09-26T11:57:29.758Z,8.93
2022-09-26T12:00:08.495Z,9.65
2022-09-26T12:03:26.551Z,10.45
2022-09-26T12:05:59.787Z,10.57
2022-09-26T12:08:51.851Z,10.13
2022-09-26T12:11:27.774Z,8.65
2022-09-26T12:14:03.055Z,9.38
2022-09-26T12:16:36.372Z,9.95
2022-09-26T12:19:12.861Z,9.45
2022-09-26T12:22:10.708Z,9.00
2022-09-26T12:24:45.359Z,9.25
2022-09-26T12:27:18.298Z,9.02
2022-09-26T12:29:51.929Z,8.30
2022-09-26T12:32:32.422Z,8.70
2022-09-26T12:37:49.265Z,9.80
2022-09-26T12:40:25.847Z,10.05
2022-09-26T12:43:21.516Z,10.18
2022-09-26T12:46:08.258Z,9.75
2022-09-26T12:48:52.225Z,9.82
2022-09-26T12:51:28.744Z,8.95
2022-09-26T12:54:23.438Z,8.20
2022-09-26T12:56:54.870Z,9.43
2022-09-26T12:59:38.717Z,7.63
2022-09-26T13:02:41.812Z,7.88
2022-09-26T13:05:39.698Z,8.15
2022-09-26T13:08:12.989Z,8.43
2022-09-26T13:10:52.734Z,8.63
2022-09-26T13:13:52.633Z,7.93
2022-09-26T13:16:31.901Z,7.88
2022-09-26T13:19:07.266Z,7.87
2022-09-26T13:21:45.801Z,7.35
2022-09-26T13:24:18.984Z,7.50
2022-09-26T13:26:50.803Z,6.50
2022-09-26T13:29:23.105Z,7.35
2022-09-26T13:31:58.923Z,7.53
2022-09-26T13:34:34.903Z,7.50
2022-09-26T13:37:05.272Z,7.03
2022-09-26T13:39:36.127Z,5.82
2022-09-26T13:42:09.167Z,6.38
2022-09-26T13:44:53.318Z,6.47
2022-09-26T13:47:28.312Z,6.47
2022-09-26T13:50:04.588Z,6.95
2022-09-26T13:52:41.160Z,6.85
2022-09-26T13:55:16.517Z,6.68
2022-09-26T13:57:52.483Z,6.20
2022-09-26T14:00:48.875Z,6.57
2022-09-26T14:03:40.865Z,6.05
2022-09-26T14:06:36.681Z,8.20
2022-09-26T14:09:28.786Z,7.80
2022-09-26T14:12:21.456Z,6.57
2022-09-26T14:15:17.533Z,6.63
2022-09-26T14:18:15.534Z,6.93
2022-09-26T14:20:55.470Z,6.88
2022-09-26T14:23:43.694Z,8.10
2022-09-26T14:26:14.107Z,8.43
2022-09-26T14:28:51.776Z,8.18
2022-09-26T14:31:39.890Z,8.60
2022-09-26T14:34:17.500Z,8.82
2022-09-26T14:36:47.041Z,8.18
2022-09-26T14:39:36.389Z,8.45
2022-09-26T14:42:23.950Z,7.47
2022-09-26T14:44:57.449Z,7.43
2022-09-26T14:47:27.499Z,7.82
2022-09-26T14:50:01.407Z,9.10
2022-09-26T14:52:30.695Z,8.23
2022-09-26T14:55:02.623Z,8.45
2022-09-26T14:57:33.445Z,8.18
2022-09-26T15:00:03.608Z,8.38
2022-09-26T15:02:39.513Z,8.65
2022-09-26T15:05:22.344Z,9.18
2022-09-26T15:07:52.585Z,10.68
2022-09-26T15:10:25.539Z,10.82
2022-09-26T15:13:03.095Z,8.73
2022-09-26T15:15:48.795Z,10.52
2022-09-26T15:18:25.661Z,11.90
2022-09-26T15:21:03.248Z,12.30
2022-09-26T15:23:34.684Z,13.75
2022-09-26T15:26:06.143Z,13.00
2022-09-26T15:28:35.386Z,12.65
2022-09-26T15:31:21.351Z,13.03
2022-09-26T15:33:56.383Z,14.25
2022-09-26T15:36:25.217Z,14.38
2022-09-26T15:38:53.973Z,14.45
2022-09-26T15:41:41.569Z,14.63
2022-09-26T15:44:12.085Z,13.63
2022-09-26T15:46:41.783Z,15.43
2022-09-26T15:49:15.369Z,14.02
2022-09-26T15:51:44.626Z,13.18
2022-09-26T15:54:21.817Z,12.77
2022-09-26T15:56:54.788Z,12.02
2022-09-26T15:59:27.221Z,13.15
2022-09-26T16:01:55.809Z,14.27
2022-09-26T16:04:27.260Z,15.63
2022-09-26T16:07:01.372Z,14.15
2022-09-26T16:09:33.338Z,13.73
2022-09-26T16:12:05.491Z,12.68
2022-09-26T16:14:40.437Z,13.00
2022-09-26T16:17:21.619Z,12.23
2022-09-26T16:19:52.287Z,12.05
2022-09-26T16:22:40.624Z,11.55
2022-09-26T16:25:29.744Z,10.88
2022-09-26T16:28:32.234Z,10.57
2022-09-26T16:31:14.917Z,10.50
2022-09-26T16:33:51.424Z,10.50
2022-09-26T16:36:23.649Z,9.70
2022-09-26T16:38:54.447Z,10.27
2022-09-26T16:44:27.569Z,9.23
2022-09-26T16:49:46.244Z,10.13
2022-09-26T16:52:31.612Z,11.35
2022-09-26T16:55:01.554Z,10.98
2022-09-26T16:57:32.514Z,12.23
2022-09-26T17:00:29.215Z,13.25
2022-09-26T17:02:59.334Z,11.73
2022-09-26T17:05:28.142Z,13.02
2022-09-26T17:07:56.654Z,12.23
2022-09-26T17:10:26.852Z,12.63
2022-09-26T17:12:56.455Z,12.57
2022-09-26T17:15:30.174Z,12.17
2022-09-26T17:18:01.268Z,9.50
2022-09-26T17:20:30.262Z,10.80
2022-09-26T17:23:16.818Z,9.20
2022-09-26T17:25:54.119Z,10.20
2022-09-26T17:28:30.029Z,10.43
2022-09-26T17:31:06.378Z,10.50
2022-09-26T17:33:40.742Z,10.75
2022-09-26T17:36:12.223Z,11.30
2022-09-26T17:38:41.305Z,10.50
2022-09-26T17:41:12.648Z,9.52
2022-09-26T17:43:41.313Z,9.52
2022-09-26T17:46:15.515Z,9.40
2022-09-26T17:48:46.141Z,9.80
2022-09-26T17:51:15.149Z,10.70
2022-09-26T17:53:51.080Z,7.97
2022-09-26T17:56:20.338Z,9.32
2022-09-26T17:58:49.728Z,9.27
2022-09-26T18:01:23.547Z,10.80
2022-09-26T18:03:56.340Z,11.35
2022-09-26T18:06:26.994Z,11.20
2022-09-26T18:08:59.758Z,7.15
2022-09-26T18:11:29.349Z,8.15
2022-09-26T18:13:58.068Z,8.20
2022-09-26T18:16:26.849Z,8.20
2022-09-26T18:18:57.160Z,7.93
2022-09-26T18:21:26.421Z,8.43
2022-09-26T18:23:58.230Z,8.20
2022-09-26T18:26:30.075Z,9.48
2022-09-26T18:28:59.659Z,9.38
2022-09-26T18:31:31.239Z,10.10
2022-09-26T18:34:03.229Z,8.85
2022-09-26T18:36:34.016Z,7.85
2022-09-26T18:39:02.821Z,8.52
2022-09-26T18:41:31.704Z,7.05
2022-09-26T18:44:02.938Z,5.80
2022-09-26T18:46:31.564Z,7.63
2022-09-26T18:49:08.582Z,8.60
2022-09-26T18:51:38.916Z,6.97
2022-09-26T18:54:11.781Z,7.32
2022-09-26T18:56:58.004Z,8.05
2022-09-26T18:59:29.028Z,8.80
2022-09-26T19:01:59.599Z,7.80
2022-09-26T19:04:31.596Z,8.43
2022-09-26T19:07:02.106Z,7.63
2022-09-26T19:09:34.255Z,7.60
2022-09-26T19:12:03.650Z,7.60
2022-09-26T19:14:33.016Z,7.80
2022-09-26T19:17:01.697Z,7.13
2022-09-26T19:19:32.605Z,7.53
2022-09-26T19:22:08.083Z,7.32
2022-09-26T19:24:39.113Z,11.80
2022-09-26T19:27:10.931Z,7.03
2022-09-26T19:29:42.276Z,6.85
2022-09-26T19:32:19.335Z,6.97
2022-09-26T19:34:51.854Z,7.63
2022-09-26T19:37:20.508Z,7.40
2022-09-26T19:39:49.313Z,7.45
2022-09-26T19:42:18.423Z,7.63
2022-09-26T19:44:47.106Z,8.10
2022-09-26T19:47:17.377Z,7.82
2022-09-26T19:49:47.235Z,7.80
2022-09-26T19:52:20.494Z,8.20
2022-09-26T19:54:53.345Z,9.43
2022-09-26T19:57:51.467Z,9.57
2022-09-26T20:00:26.578Z,9.38
2022-09-26T20:03:30.295Z,10.48
2022-09-26T20:06:32.494Z,11.00
2022-09-26T20:09:32.328Z,11.43
2022-09-26T20:12:06.215Z,12.35
2022-09-26T20:14:58.822Z,12.15
2022-09-26T20:17:58.519Z,12.02
2022-09-26T20:20:54.907Z,14.43
2022-09-26T20:23:52.910Z,15.13
2022-09-26T20:26:48.198Z,15.23
2022-09-26T20:30:04.169Z,15.20
2022-09-26T20:33:01.412Z,16.05
2022-09-26T20:36:03.205Z,14.27
2022-09-26T20:38:43.551Z,16.63
2022-09-26T20:41:15.289Z,17.27
2022-09-26T20:43:49.887Z,16.60
2022-09-26T20:46:21.791Z,16.52
2022-09-26T20:48:51.600Z,17.40
2022-09-26T20:51:22.724Z,18.48
2022-09-26T20:53:52.207Z,16.92
2022-09-26T20:56:22.060Z,18.40
2022-09-26T20:58:52.592Z,19.65
2022-09-26T21:01:23.083Z,19.83
2022-09-26T21:06:24.045Z,19.33
2022-09-26T21:08:53.045Z,20.13
2022-09-26T21:11:23.095Z,19.00
2022-09-26T21:13:53.843Z,20.55
2022-09-26T21:16:24.059Z,20.77
2022-09-26T21:18:54.752Z,21.17
2022-09-26T21:21:25.981Z,22.85
2022-09-26T21:24:05.581Z,21.13
2022-09-26T21:26:34.958Z,21.33
2022-09-26T21:29:07.883Z,20.63
2022-09-26T21:31:36.798Z,22.92
2022-09-26T21:34:06.294Z,22.10
2022-09-26T21:36:37.396Z,21.93
2022-09-26T21:39:07.618Z,25.58
2022-09-26T21:41:37.370Z,23.98
2022-09-26T21:44:11.555Z,24.97
2022-09-26T21:46:40.020Z,25.27
2022-09-26T21:49:08.776Z,24.08
2022-09-26T21:51:37.943Z,23.77
2022-09-26T21:54:09.113Z,26.27
2022-09-26T21:56:40.648Z,21.48
2022-09-26T21:59:10.840Z,24.63
2022-09-26T22:01:39.330Z,24.40
2022-09-26T22:04:08.522Z,24.88
2022-09-26T22:06:37.339Z,21.48
2022-09-26T22:09:06.371Z,22.48
2022-09-26T22:11:37.581Z,21.80
2022-09-26T22:14:06.397Z,20.90
2022-09-26T22:16:36.151Z,20.42
2022-09-26T22:19:05.527Z,21.02
2022-09-26T22:21:34.223Z,21.80
2022-09-26T22:24:03.469Z,21.55
2022-09-26T22:26:32.185Z,21.35
2022-09-26T22:29:00.816Z,21.38
2022-09-26T22:31:29.120Z,21.42
2022-09-26T22:33:59.545Z,21.00
2022-09-26T22:38:56.753Z,18.45
2022-09-26T22:41:25.430Z,19.75
2022-09-26T22:43:54.399Z,19.88
2022-09-26T22:46:23.341Z,19.08
2022-09-26T22:48:52.163Z,20.50
2022-09-26T22:51:22.221Z,20.98
2022-09-26T22:53:51.004Z,22.15
2022-09-26T22:56:19.949Z,21.30
2022-09-26T22:58:49.884Z,23.38
2022-09-26T23:01:22.417Z,24.25
2022-09-26T23:03:52.066Z,23.92
2022-09-26T23:06:22.680Z,23.30
2022-09-26T23:08:51.836Z,26.13
2022-09-26T23:11:22.027Z,26.10
2022-09-26T23:13:51.792Z,25.15
2022-09-26T23:16:22.514Z,22.58
2022-09-26T23:18:52.817Z,23.67
2022-09-26T23:21:24.498Z,24.83
2022-09-26T23:23:55.160Z,25.45
2022-09-26T23:26:25.685Z,25.33
2022-09-26T23:28:56.888Z,26.10
2022-09-26T23:31:27.604Z,25.52
2022-09-26T23:33:58.949Z,25.35
2022-09-26T23:36:29.006Z,27.30
2022-09-26T23:38:58.448Z,26.17
2022-09-26T23:41:27.116Z,27.83
2022-09-26T23:43:55.400Z,27.27
2022-09-26T23:46:24.268Z,28.52
2022-09-26T23:48:53.059Z,28.58
2022-09-26T23:51:22.008Z,30.75
2022-09-26T23:53:52.343Z,30.92
2022-09-26T23:56:21.315Z,31.67
2022-09-26T23:58:49.680Z,32.35
